createdAt,value
2023-05-14T00:00:49.417Z,85.69
2023-05-14T00:03:17.855Z,85.60
2023-05-14T00:05:47.677Z,86.46
2023-05-14T00:08:15.901Z,86.10
2023-05-14T00:10:44.143Z,86.25
2023-05-14T00:13:12.359Z,85.54
2023-05-14T00:15:40.880Z,85.46
2023-05-14T00:18:12.183Z,85.73
2023-05-14T00:20:40.517Z,85.97
2023-05-14T00:23:10.258Z,86.23
2023-05-14T00:25:38.842Z,85.86
2023-05-14T00:28:07.053Z,86.08
2023-05-14T00:30:35.362Z,85.71
2023-05-14T00:33:03.635Z,86.27
2023-05-14T00:35:32.421Z,86.50
2023-05-14T00:38:00.704Z,87.89
2023-05-14T00:40:30.816Z,88.37
2023-05-14T00:42:59.140Z,88.04
2023-05-14T00:45:27.820Z,88.79
2023-05-14T00:47:56.313Z,88.71
2023-05-14T00:50:25.253Z,89.07
2023-05-14T00:52:53.797Z,88.79
2023-05-14T00:55:23.016Z,89.30
2023-05-14T00:57:54.716Z,89.32
2023-05-14T01:00:23.185Z,88.97
2023-05-14T01:02:51.922Z,88.56
2023-05-14T01:05:20.291Z,88.82
2023-05-14T01:07:56.556Z,88.88
2023-05-14T01:10:32.600Z,88.54
2023-05-14T01:13:13.905Z,88.40
2023-05-14T01:15:45.392Z,88.66
2023-05-14T01:18:18.914Z,87.60
2023-05-14T01:20:47.428Z,87.59
2023-05-14T01:23:17.296Z,87.60
2023-05-14T01:25:45.605Z,87.65
2023-05-14T01:28:19.024Z,87.79
2023-05-14T01:30:58.488Z,87.02
2023-05-14T01:33:28.770Z,87.44
2023-05-14T01:35:58.603Z,89.23
2023-05-14T01:38:30.836Z,89.84
2023-05-14T01:41:01.090Z,90.07
2023-05-14T01:43:31.504Z,89.34
2023-05-14T01:46:00.227Z,89.52
2023-05-14T01:48:30.120Z,89.54
2023-05-14T01:50:58.484Z,89.84
2023-05-14T01:53:28.205Z,89.90
2023-05-14T01:55:56.530Z,89.75
2023-05-14T01:58:24.860Z,90.41
2023-05-14T02:00:53.145Z,89.87
2023-05-14T02:03:21.767Z,90.02
2023-05-14T02:05:50.060Z,89.33
2023-05-14T02:08:18.433Z,89.44
2023-05-14T02:10:48.158Z,89.42
2023-05-14T02:13:18.352Z,89.30
2023-05-14T02:15:47.396Z,89.43
2023-05-14T02:18:15.955Z,88.84
2023-05-14T02:20:44.490Z,88.92
2023-05-14T02:23:12.997Z,88.59
2023-05-14T02:25:41.349Z,88.81
2023-05-14T02:28:11.280Z,88.32
2023-05-14T02:30:40.186Z,87.80
2023-05-14T02:33:08.718Z,87.77
2023-05-14T02:35:37.460Z,88.05
2023-05-14T02:38:06.868Z,88.43
2023-05-14T02:40:35.244Z,88.71
2023-05-14T02:43:03.520Z,88.65
2023-05-14T02:45:33.136Z,88.72
2023-05-14T02:48:01.560Z,88.57
2023-05-14T02:50:30.362Z,88.79
2023-05-14T02:52:58.588Z,89.37
2023-05-14T02:55:27.471Z,88.97
2023-05-14T02:57:56.893Z,87.88
2023-05-14T03:00:25.812Z,87.05
2023-05-14T03:02:56.335Z,87.15
2023-05-14T03:05:25.180Z,87.15
2023-05-14T03:07:54.075Z,87.14
2023-05-14T03:10:22.598Z,87.26
2023-05-14T03:12:51.655Z,86.86
2023-05-14T03:15:20.215Z,86.71
2023-05-14T03:17:48.572Z,87.30
2023-05-14T03:20:18.938Z,87.53
2023-05-14T03:22:48.060Z,87.13
2023-05-14T03:25:16.348Z,86.40
2023-05-14T03:27:44.637Z,85.74
2023-05-14T03:30:13.809Z,85.13
2023-05-14T03:32:43.107Z,84.74
2023-05-14T03:35:12.537Z,84.16
2023-05-14T03:37:42.342Z,83.61
2023-05-14T03:40:11.463Z,83.04
2023-05-14T03:42:39.849Z,82.05
2023-05-14T03:45:10.796Z,81.68
2023-05-14T03:47:39.125Z,81.59
2023-05-14T03:50:08.907Z,81.87
2023-05-14T03:52:37.402Z,81.88
2023-05-14T03:55:08.226Z,81.95
2023-05-14T03:57:37.912Z,81.79
2023-05-14T04:00:07.315Z,81.38
2023-05-14T04:02:46.160Z,80.74
2023-05-14T04:05:14.819Z,80.39
2023-05-14T04:07:45.281Z,79.74
2023-05-14T04:10:15.972Z,78.99
2023-05-14T04:12:44.283Z,78.40
2023-05-14T04:15:13.049Z,77.92
2023-05-14T04:17:43.014Z,77.67
2023-05-14T04:20:13.994Z,78.24
2023-05-14T04:22:42.356Z,78.67
2023-05-14T04:25:11.018Z,78.12
2023-05-14T04:27:41.582Z,78.02
2023-05-14T04:30:11.409Z,78.23
2023-05-14T04:32:40.031Z,78.66
2023-05-14T04:35:10.114Z,79.05
2023-05-14T04:37:38.455Z,78.96
2023-05-14T04:40:08.239Z,79.04
2023-05-14T04:42:36.584Z,78.97
2023-05-14T04:45:07.267Z,79.04
2023-05-14T04:47:36.018Z,78.85
2023-05-14T04:50:04.400Z,78.33
2023-05-14T04:52:34.558Z,77.54
2023-05-14T04:55:02.866Z,77.67
2023-05-14T04:57:33.435Z,77.50
2023-05-14T05:00:02.024Z,77.08
2023-05-14T05:02:34.856Z,76.55
2023-05-14T05:05:04.170Z,76.39
2023-05-14T05:07:35.158Z,75.43
2023-05-14T05:10:03.589Z,74.20
2023-05-14T05:12:35.445Z,73.43
2023-05-14T05:15:04.032Z,72.48
2023-05-14T05:17:38.161Z,71.44
2023-05-14T05:20:09.776Z,70.07
2023-05-14T05:22:38.096Z,70.02
2023-05-14T05:25:08.200Z,70.02
2023-05-14T05:27:36.791Z,69.75
2023-05-14T05:30:06.506Z,67.53
2023-05-14T05:32:37.882Z,65.68
2023-05-14T05:35:06.901Z,65.43
2023-05-14T05:37:35.177Z,65.02
2023-05-14T05:40:04.332Z,65.35
2023-05-14T05:42:32.988Z,64.79
2023-05-14T05:45:01.325Z,61.96
2023-05-14T05:47:33.252Z,61.69
2023-05-14T05:50:03.048Z,61.90
2023-05-14T05:52:32.449Z,61.29
2023-05-14T05:55:01.103Z,60.19
2023-05-14T05:57:30.486Z,59.38
2023-05-14T05:59:59.192Z,58.92
2023-05-14T06:02:27.590Z,57.54
2023-05-14T06:04:56.030Z,56.89
2023-05-14T06:07:25.737Z,56.78
2023-05-14T06:09:54.050Z,56.66
2023-05-14T06:12:22.318Z,55.96
2023-05-14T06:14:51.416Z,55.84
2023-05-14T06:17:19.849Z,55.27
2023-05-14T06:19:48.392Z,53.52
2023-05-14T06:22:16.735Z,52.99
2023-05-14T06:24:46.530Z,53.00
2023-05-14T06:27:14.945Z,53.21
2023-05-14T06:29:43.174Z,52.25
2023-05-14T06:32:14.339Z,51.43
2023-05-14T06:34:42.803Z,51.78
2023-05-14T06:37:12.814Z,52.19
2023-05-14T06:39:44.251Z,52.30
2023-05-14T06:42:13.967Z,51.58
2023-05-14T06:44:42.490Z,51.65
2023-05-14T06:47:10.822Z,50.53
2023-05-14T06:49:39.197Z,51.14
2023-05-14T06:52:08.303Z,51.04
2023-05-14T06:54:36.569Z,50.10
2023-05-14T06:57:05.405Z,48.14
2023-05-14T06:59:34.985Z,48.08
2023-05-14T07:02:03.495Z,48.36
2023-05-14T07:04:32.082Z,48.59
2023-05-14T07:07:00.543Z,48.24
2023-05-14T07:09:29.780Z,47.99
2023-05-14T07:11:58.116Z,47.02
2023-05-14T07:14:26.712Z,46.79
2023-05-14T07:16:57.360Z,46.43
2023-05-14T07:19:28.748Z,46.36
2023-05-14T07:21:57.765Z,45.03
2023-05-14T07:24:26.032Z,45.06
2023-05-14T07:26:54.649Z,44.94
2023-05-14T07:29:22.913Z,44.93
2023-05-14T07:31:51.556Z,44.94
2023-05-14T07:34:21.503Z,45.07
2023-05-14T07:36:49.876Z,44.80
2023-05-14T07:39:18.217Z,43.11
2023-05-14T07:41:46.614Z,43.83
2023-05-14T07:44:14.910Z,44.02
2023-05-14T07:46:43.738Z,43.73
2023-05-14T07:49:12.018Z,42.83
2023-05-14T07:51:42.084Z,41.48
2023-05-14T07:54:11.342Z,42.16
2023-05-14T07:56:39.652Z,42.71
2023-05-14T07:59:08.382Z,42.27
2023-05-14T08:01:38.584Z,42.64
2023-05-14T08:04:08.099Z,42.85
2023-05-14T08:06:37.262Z,41.57
2023-05-14T08:09:07.043Z,40.19
2023-05-14T08:11:35.464Z,39.96
2023-05-14T08:14:03.781Z,40.77
2023-05-14T08:16:32.040Z,39.96
2023-05-14T08:19:01.615Z,40.38
2023-05-14T08:21:30.107Z,40.93
2023-05-14T08:23:58.424Z,41.66
2023-05-14T08:26:28.273Z,41.57
2023-05-14T08:28:56.719Z,41.13
2023-05-14T08:31:25.311Z,41.00
2023-05-14T08:33:53.611Z,40.11
2023-05-14T08:36:22.027Z,39.87
2023-05-14T08:38:50.893Z,40.23
2023-05-14T08:41:19.889Z,40.74
2023-05-14T08:43:59.779Z,41.07
2023-05-14T08:46:31.719Z,39.97
2023-05-14T08:49:06.315Z,40.40
2023-05-14T08:51:34.837Z,40.42
2023-05-14T08:54:04.409Z,40.55
2023-05-14T08:56:34.005Z,40.18
2023-05-14T08:59:03.874Z,40.20
2023-05-14T09:01:32.440Z,40.41
2023-05-14T09:04:07.185Z,39.19
2023-05-14T09:06:37.678Z,39.53
2023-05-14T09:09:06.560Z,39.67
2023-05-14T09:11:34.892Z,40.65
2023-05-14T09:14:04.739Z,39.19
2023-05-14T09:16:33.430Z,38.80
2023-05-14T09:19:01.903Z,38.79
2023-05-14T09:21:32.826Z,38.80
2023-05-14T09:24:02.139Z,37.80
2023-05-14T09:26:33.919Z,37.26
2023-05-14T09:29:05.185Z,37.99
2023-05-14T09:31:35.272Z,37.73
2023-05-14T09:34:04.497Z,37.31
2023-05-14T09:36:35.593Z,34.97
2023-05-14T09:39:05.869Z,35.84
2023-05-14T09:41:34.085Z,35.50
2023-05-14T09:44:04.174Z,35.92
2023-05-14T09:46:35.218Z,34.93
2023-05-14T09:49:03.684Z,34.47
2023-05-14T09:51:33.371Z,34.47
2023-05-14T09:54:02.062Z,34.82
2023-05-14T09:56:30.647Z,35.03
2023-05-14T09:58:59.119Z,34.51
2023-05-14T10:01:29.617Z,35.32
2023-05-14T10:03:59.310Z,35.11
2023-05-14T10:06:31.937Z,35.02
2023-05-14T10:09:12.365Z,35.66
2023-05-14T10:11:46.417Z,36.20
2023-05-14T10:14:19.816Z,36.35
2023-05-14T10:16:50.675Z,36.01
2023-05-14T10:19:24.703Z,36.16
2023-05-14T10:21:58.329Z,36.01
2023-05-14T10:24:27.897Z,36.27
2023-05-14T10:26:58.751Z,35.20
2023-05-14T10:29:34.979Z,35.90
2023-05-14T10:32:06.759Z,36.53
2023-05-14T10:34:42.696Z,35.68
2023-05-14T10:37:13.675Z,36.71
2023-05-14T10:39:46.442Z,36.74
2023-05-14T10:42:17.700Z,36.46
2023-05-14T10:44:52.492Z,35.96
2023-05-14T10:47:21.536Z,34.90
2023-05-14T10:49:54.907Z,35.48
2023-05-14T10:52:24.994Z,34.30
2023-05-14T10:54:55.363Z,34.63
2023-05-14T10:57:26.619Z,35.43
2023-05-14T10:59:56.536Z,34.58
2023-05-14T11:02:27.032Z,33.32
2023-05-14T11:05:11.123Z,33.39
2023-05-14T11:07:41.360Z,33.33
2023-05-14T11:10:11.237Z,33.71
2023-05-14T11:12:41.652Z,32.73
2023-05-14T11:15:12.145Z,33.17
2023-05-14T11:17:42.455Z,32.34
2023-05-14T11:20:16.800Z,31.60
2023-05-14T11:22:46.822Z,31.11
2023-05-14T11:25:16.292Z,31.93
2023-05-14T11:27:46.199Z,32.67
2023-05-14T11:30:16.323Z,32.14
2023-05-14T11:32:46.435Z,31.75
2023-05-14T11:35:17.267Z,32.08
2023-05-14T11:37:51.969Z,32.35
2023-05-14T11:40:21.510Z,31.94
2023-05-14T11:42:52.561Z,31.66
2023-05-14T11:45:26.541Z,32.33
2023-05-14T11:47:55.207Z,31.59
2023-05-14T11:50:25.292Z,32.15
2023-05-14T11:52:58.480Z,32.75
2023-05-14T11:55:27.153Z,32.33
2023-05-14T11:57:55.945Z,31.71
2023-05-14T12:00:25.293Z,31.42
2023-05-14T12:02:53.945Z,31.42
2023-05-14T12:05:22.420Z,31.00
2023-05-14T12:07:52.166Z,30.08
2023-05-14T12:10:20.926Z,30.62
2023-05-14T12:12:50.745Z,31.58
2023-05-14T12:15:22.006Z,31.89
2023-05-14T12:17:53.975Z,32.10
2023-05-14T12:20:26.469Z,31.66
2023-05-14T12:22:56.915Z,31.32
2023-05-14T12:25:27.307Z,31.65
2023-05-14T12:27:55.791Z,31.58
2023-05-14T12:30:24.686Z,31.46
2023-05-14T12:32:53.816Z,31.84
2023-05-14T12:35:22.960Z,32.30
2023-05-14T12:37:54.445Z,33.44
2023-05-14T12:40:25.600Z,34.54
2023-05-14T12:42:56.869Z,34.91
2023-05-14T12:45:26.178Z,35.66
2023-05-14T12:47:58.477Z,35.85
2023-05-14T12:50:32.599Z,36.01
2023-05-14T12:53:05.785Z,36.22
2023-05-14T12:55:40.350Z,37.00
2023-05-14T12:58:10.164Z,37.58
2023-05-14T13:00:42.257Z,37.65
2023-05-14T13:03:11.163Z,36.88
2023-05-14T13:05:40.230Z,37.16
2023-05-14T13:08:08.945Z,37.01
2023-05-14T13:10:38.985Z,37.42
2023-05-14T13:13:07.697Z,37.59
2023-05-14T13:15:39.882Z,36.81
2023-05-14T13:18:08.900Z,35.88
2023-05-14T13:20:43.086Z,35.67
2023-05-14T13:23:12.022Z,35.08
2023-05-14T13:25:43.759Z,35.06
2023-05-14T13:28:12.639Z,34.04
2023-05-14T13:31:04.093Z,33.97
2023-05-14T13:33:33.985Z,33.11
2023-05-14T13:36:06.031Z,33.24
2023-05-14T13:38:38.383Z,32.77
2023-05-14T13:41:08.827Z,33.23
2023-05-14T13:43:37.254Z,32.35
2023-05-14T13:46:07.318Z,33.05
2023-05-14T13:48:37.522Z,32.96
2023-05-14T13:51:06.347Z,33.12
2023-05-14T13:53:35.008Z,33.12
2023-05-14T13:56:03.829Z,33.00
2023-05-14T13:58:33.984Z,33.01
2023-05-14T14:01:02.916Z,33.63
2023-05-14T14:03:32.257Z,34.06
2023-05-14T14:06:01.219Z,34.48
2023-05-14T14:08:31.265Z,34.94
2023-05-14T14:11:03.277Z,35.11
2023-05-14T14:13:33.426Z,34.98
2023-05-14T14:16:03.357Z,35.03
2023-05-14T14:18:36.284Z,34.99
2023-05-14T14:21:07.790Z,35.31
2023-05-14T14:23:36.928Z,35.50
2023-05-14T14:26:06.357Z,35.72
2023-05-14T14:28:37.184Z,35.25
2023-05-14T14:31:06.073Z,36.25
2023-05-14T14:33:35.163Z,36.49
2023-05-14T14:36:03.959Z,36.36
2023-05-14T14:38:32.630Z,35.79
2023-05-14T14:41:03.421Z,35.76
2023-05-14T14:43:32.311Z,35.54
2023-05-14T14:46:02.898Z,36.32
2023-05-14T14:48:37.664Z,36.95
2023-05-14T14:51:10.429Z,37.68
2023-05-14T14:53:41.912Z,36.65
2023-05-14T14:56:10.614Z,36.22
2023-05-14T14:58:39.956Z,35.52
2023-05-14T15:01:13.069Z,35.58
2023-05-14T15:03:41.989Z,34.73
2023-05-14T15:06:12.131Z,34.83
2023-05-14T15:08:41.733Z,34.61
2023-05-14T15:11:10.984Z,34.88
2023-05-14T15:13:41.042Z,34.98
2023-05-14T15:16:14.516Z,34.35
2023-05-14T15:18:43.781Z,34.48
2023-05-14T15:21:13.165Z,35.23
2023-05-14T15:23:42.207Z,35.24
2023-05-14T15:26:10.929Z,35.46
2023-05-14T15:28:44.934Z,36.02
2023-05-14T15:31:19.559Z,36.20
2023-05-14T15:33:52.301Z,35.98
2023-05-14T15:36:22.395Z,36.80
2023-05-14T15:38:55.986Z,36.50
2023-05-14T15:41:28.984Z,36.51
2023-05-14T15:43:59.020Z,36.64
2023-05-14T15:46:29.304Z,36.29
2023-05-14T15:48:58.913Z,36.50
2023-05-14T15:51:27.631Z,36.44
2023-05-14T15:53:56.748Z,36.34
2023-05-14T15:56:26.351Z,36.24
2023-05-14T15:58:55.259Z,36.28
2023-05-14T16:01:30.030Z,36.46
2023-05-14T16:04:00.472Z,37.66
2023-05-14T16:06:32.751Z,37.66
2023-05-14T16:09:04.203Z,37.04
2023-05-14T16:11:36.186Z,36.45
2023-05-14T16:14:05.347Z,36.53
2023-05-14T16:16:34.031Z,36.58
2023-05-14T16:19:08.053Z,36.27
2023-05-14T16:21:45.563Z,36.17
2023-05-14T16:24:19.773Z,36.01
2023-05-14T16:26:49.344Z,36.33
2023-05-14T16:29:18.549Z,36.26
2023-05-14T16:31:47.743Z,36.39
2023-05-14T16:34:20.350Z,36.65
2023-05-14T16:36:49.614Z,36.66
2023-05-14T16:39:21.480Z,37.18
2023-05-14T16:42:01.394Z,37.56
2023-05-14T16:44:33.017Z,37.52
2023-05-14T16:47:01.925Z,38.45
2023-05-14T16:49:32.140Z,37.45
2023-05-14T16:52:03.360Z,37.22
2023-05-14T16:54:34.933Z,37.06
2023-05-14T16:57:03.306Z,37.94
2023-05-14T16:59:31.794Z,37.60
2023-05-14T17:02:00.305Z,37.40
2023-05-14T17:04:29.236Z,37.92
2023-05-14T17:06:59.417Z,37.62
2023-05-14T17:09:27.672Z,37.91
2023-05-14T17:11:56.144Z,38.36
2023-05-14T17:14:29.321Z,38.46
2023-05-14T17:17:00.337Z,38.72
2023-05-14T17:19:30.121Z,39.22
2023-05-14T17:22:00.625Z,39.74
2023-05-14T17:24:28.872Z,38.34
2023-05-14T17:26:57.138Z,38.22
2023-05-14T17:29:25.593Z,37.31
2023-05-14T17:31:54.662Z,38.11
2023-05-14T17:34:23.167Z,38.38
2023-05-14T17:36:51.638Z,38.91
2023-05-14T17:39:21.205Z,39.31
2023-05-14T17:41:49.471Z,39.85
2023-05-14T17:44:17.767Z,40.35
2023-05-14T17:46:46.253Z,40.30
2023-05-14T17:49:14.523Z,40.57
2023-05-14T17:51:42.817Z,41.11
2023-05-14T17:54:11.125Z,41.16
2023-05-14T17:56:41.522Z,41.67
2023-05-14T17:59:09.897Z,42.21
2023-05-14T18:01:38.174Z,42.27
2023-05-14T18:04:06.934Z,42.59
2023-05-14T18:06:36.817Z,42.76
2023-05-14T18:09:05.435Z,42.94
2023-05-14T18:11:34.078Z,42.86
2023-05-14T18:14:04.162Z,42.54
2023-05-14T18:16:32.724Z,42.60
2023-05-14T18:19:01.407Z,43.65
2023-05-14T18:21:30.223Z,45.15
2023-05-14T18:23:58.544Z,45.20
2023-05-14T18:26:26.909Z,44.80
2023-05-14T18:28:55.628Z,45.97
2023-05-14T18:31:27.433Z,45.61
2023-05-14T18:33:55.876Z,46.38
2023-05-14T18:36:24.133Z,46.51
2023-05-14T18:38:52.546Z,46.03
2023-05-14T18:41:21.862Z,46.52
2023-05-14T18:43:50.143Z,47.33
2023-05-14T18:46:18.574Z,47.46
2023-05-14T18:48:48.390Z,47.76
2023-05-14T18:51:16.646Z,47.24
2023-05-14T18:53:44.956Z,47.90
2023-05-14T18:56:13.365Z,47.62
2023-05-14T18:58:41.705Z,49.02
2023-05-14T19:01:10.114Z,48.31
2023-05-14T19:03:38.710Z,47.61
2023-05-14T19:06:08.843Z,49.85
2023-05-14T19:08:37.227Z,50.39
2023-05-14T19:11:05.900Z,50.44
2023-05-14T19:13:34.165Z,49.97
2023-05-14T19:16:02.662Z,50.56
2023-05-14T19:18:31.396Z,51.59
2023-05-14T19:21:00.140Z,51.64
2023-05-14T19:23:31.201Z,51.73
2023-05-14T19:25:59.800Z,51.51
2023-05-14T19:28:28.093Z,51.97
2023-05-14T19:30:57.382Z,52.94
2023-05-14T19:33:26.419Z,53.44
2023-05-14T19:35:55.532Z,54.55
2023-05-14T19:38:23.811Z,54.53
2023-05-14T19:40:57.073Z,54.98
2023-05-14T19:43:26.208Z,55.35
2023-05-14T19:45:54.534Z,56.29
2023-05-14T19:48:23.235Z,56.10
2023-05-14T19:50:51.979Z,55.65
2023-05-14T19:53:20.348Z,55.80
2023-05-14T19:55:48.927Z,56.22
2023-05-14T19:58:18.686Z,56.12
2023-05-14T20:00:47.433Z,56.70
2023-05-14T20:03:15.955Z,57.27
2023-05-14T20:05:46.026Z,58.01
2023-05-14T20:08:14.396Z,58.21
2023-05-14T20:10:42.628Z,58.61
2023-05-14T20:13:11.170Z,58.80
2023-05-14T20:15:41.301Z,58.66
2023-05-14T20:18:09.889Z,58.61
2023-05-14T20:20:38.235Z,58.69
2023-05-14T20:23:06.826Z,59.63
2023-05-14T20:25:35.740Z,60.05
2023-05-14T20:28:04.031Z,60.71
2023-05-14T20:30:32.536Z,61.22
2023-05-14T20:33:02.415Z,61.77
2023-05-14T20:35:31.294Z,62.20
2023-05-14T20:38:00.282Z,62.49
2023-05-14T20:40:28.682Z,62.63
2023-05-14T20:42:57.080Z,62.50
2023-05-14T20:45:25.584Z,63.25
2023-05-14T20:47:53.924Z,63.82
2023-05-14T20:50:23.687Z,64.38
2023-05-14T20:52:52.145Z,64.61
2023-05-14T20:55:21.784Z,64.97
2023-05-14T20:57:50.715Z,65.21
2023-05-14T21:00:19.908Z,65.18
2023-05-14T21:02:49.226Z,65.26
2023-05-14T21:05:18.581Z,64.95
2023-05-14T21:07:48.228Z,65.32
2023-05-14T21:10:17.124Z,66.03
2023-05-14T21:12:45.555Z,66.06
2023-05-14T21:15:13.820Z,66.47
2023-05-14T21:17:42.188Z,66.63
2023-05-14T21:20:13.465Z,66.51
2023-05-14T21:22:41.795Z,67.04
2023-05-14T21:25:12.067Z,67.50
2023-05-14T21:27:40.493Z,68.72
2023-05-14T21:30:09.977Z,69.41
2023-05-14T21:32:38.440Z,69.25
2023-05-14T21:35:07.454Z,69.32
2023-05-14T21:37:35.790Z,69.39
2023-05-14T21:40:04.044Z,69.30
2023-05-14T21:42:35.848Z,69.37
2023-05-14T21:45:04.261Z,69.70
2023-05-14T21:47:34.820Z,69.86
2023-05-14T21:50:04.933Z,70.02
2023-05-14T21:52:34.159Z,70.16
2023-05-14T21:55:02.402Z,70.26
2023-05-14T21:57:34.242Z,70.35
2023-05-14T22:00:07.727Z,70.32
2023-05-14T22:02:36.029Z,70.39
2023-05-14T22:05:05.258Z,70.77
2023-05-14T22:07:33.782Z,70.74
2023-05-14T22:10:02.329Z,71.09
2023-05-14T22:12:47.049Z,72.60
2023-05-14T22:15:16.813Z,72.39
2023-05-14T22:17:45.065Z,72.43
2023-05-14T22:20:13.610Z,72.49
2023-05-14T22:22:41.988Z,72.40
2023-05-14T22:25:11.079Z,72.65
2023-05-14T22:27:39.294Z,72.42
2023-05-14T22:30:08.927Z,73.12
2023-05-14T22:32:38.518Z,73.95
2023-05-14T22:35:07.123Z,73.34
2023-05-14T22:37:35.356Z,73.61
2023-05-14T22:40:05.216Z,73.91
2023-05-14T22:42:33.925Z,74.68
2023-05-14T22:45:02.418Z,75.41
2023-05-14T22:47:33.384Z,76.39
2023-05-14T22:50:03.293Z,76.64
2023-05-14T22:52:32.731Z,76.48
2023-05-14T22:55:01.029Z,77.13
2023-05-14T22:57:29.379Z,77.43
2023-05-14T22:59:57.633Z,77.83
2023-05-14T23:02:25.837Z,79.20
2023-05-14T23:04:54.317Z,79.09
2023-05-14T23:07:24.214Z,80.08
2023-05-14T23:09:52.546Z,79.98
2023-05-14T23:12:20.769Z,79.58
2023-05-14T23:14:49.059Z,79.85
2023-05-14T23:17:18.348Z,79.11
2023-05-14T23:19:46.788Z,79.73
2023-05-14T23:22:15.089Z,79.16
2023-05-14T23:24:45.088Z,79.16
2023-05-14T23:27:13.418Z,79.06
2023-05-14T23:29:41.691Z,78.95
2023-05-14T23:32:10.181Z,78.37
2023-05-14T23:34:38.549Z,77.98
2023-05-14T23:37:07.768Z,77.87
2023-05-14T23:39:36.081Z,77.98
2023-05-14T23:42:05.855Z,78.22
2023-05-14T23:44:34.077Z,78.12
2023-05-14T23:47:02.506Z,78.43
2023-05-14T23:49:30.920Z,77.89
2023-05-14T23:51:59.154Z,77.13
2023-05-14T23:54:27.403Z,77.59
2023-05-14T23:56:55.703Z,77.34
2023-05-14T23:59:25.424Z,77.04
